Arcadia, Michigan
Current Conditions -  °F | °C
As of 6:52 AM on Saturday 25 Oct 2014 (Local Time) from KFKS Reporting Station
Haze Haze  
Wind Chill: 55°   Ceiling: 1100
Heat Index: 55°   Visibility: 5mi
Dew Point: 51°   Wind: 6mph
Humidity: 87%   Direction: 240°WSW
Pressure: 29.78"   Gusts: NA
Location:  44.49°N, 86.23°W
Report Text: KFKS 251052Z AUTO 24005KT 5SM BR OVC011 13/11 A2978 RMK AO2 T01270106
Loading
Personal Weather Stations






























Interactive Weather Map
Tropical Storm Tracking
New forecast layout! Learn more

10-Day Weather Forecast

Advertisements
Track Severe Weather on mobile